AirNav   Everest Fuels
 
 457 users online  

04CT Shingle Mill Heliport
Harwinton, Connecticut, USA

GOING TO HARWINTON?


FAA INFORMATION EFFECTIVE 26 MARCH 2020

Location

FAA Identifier: 04CT
Lat/Long: 41-45-18.3800N 073-03-08.6400W
41-45.306333N 073-03.144000W
41.7551056,-73.0524000
(estimated)
Elevation: 880 ft. / 268 m (estimated)
Variation: 14W (2000)
From city: 1 mile SE of HARWINTON, CT
Time zone: UTC -4 (UTC -5 during Standard Time)
Zip code: 06791

Heliport Operations

Heliport use: Private use. Permission required prior to landing
Activation date: 11/2000
Control tower: no
ARTCC: BOSTON CENTER
FSS: BRIDGEPORT FLIGHT SERVICE STATION
Attendance: UNATNDD
Segmented circle: no

Heliport Communications

WX AWOS-AV at CT71 (12 nm E): 129.825
WX AWOS-3PT at OXC (17 nm S): 132.975 (203-262-1190)
WX ASOS at MMK (18 nm SE): 134.925 (203-639-9405)
WX ASOS at HFD (18 nm E): PHONE 860-527-5837
WX ASOS at BDL (20 nm NE): PHONE 860-386-3480

Nearby radio navigation aids

VOR radial/distance  VOR name  Freq  Var
HFDr300/23.6HARTFORD VOR/DME114.9013W
PWLr104/24.5PAWLING VOR/DME114.3012W
BAFr226/28.7BARNES VORTAC113.0014W
MADr342/31.0MADISON VOR/DME110.4013W
CTRr201/32.5CHESTER VOR/DME115.1013W
IGNr093/34.9KINGSTON VOR/DME117.6012W
BDRr017/35.8BRIDGEPORT VOR/DME108.8012W
CMKr052/37.1CARMEL VOR/DME116.6012W

 
NDB name  Hdg/Dist  Freq  Var  ID
GREAT BARRINGTON163/30.139514WGBR --. -... .-.

Heliport Services

Runway Information

Helipad H1

Dimensions: 50 x 100 ft. / 15 x 30 m
Surface: turf
Traffic pattern: leftleft

Heliport Ownership and Management from official FAA records

Ownership: Privately-owned
Owner: DONALD G. NELSON
44 SHINGLE MILL ROAD
HARWINTON, CT 06791
Phone 860-485-0690
Manager: DONALD G. NELSON
Phone (860) 424-2315

Heliport Operational Statistics

Aircraft based on the field: 1
Helicopters: 1
    

Additional Remarks

100 FT TREES 500 FT SOUTH OF PAD & 340 FT TWRS 800 FT N-NE OF HELIPAD.
SCHOOL 1.5 MILES NW OF HELIPAD.
FOR CD CTC YANKEE APCH AT 860-386-3597

Instrument Procedures

There are no published instrument procedures at 04CT.

Some nearby airports with instrument procedures:

4B8 - Robertson Field Airport (9 nm SE)
KOXC - Waterbury-Oxford Airport (17 nm S)
KMMK - Meriden Markham Municipal Airport (18 nm SE)
KHFD - Hartford-Brainard Airport (18 nm E)
KBDL - Bradley International Airport (20 nm NE)
 
Loc | Ops | Rwys | IFR | FBO | Links
Com | Nav | Svcs | Stats | Notes

Silver City Flying Club
 
Area around 04CT (Shingle Mill Heliport)
 
Road maps at: MapQuest Bing Google
 
Aerial photo
No photo
 
Sectional chart

 
Airport distance calculator
Flying to Shingle Mill Heliport? Find the distance to fly.

From to 04CT

Sunrise and sunset
Times for 10-Apr-2020
 Local
(UTC-4)
 Zulu
(UTC)
Morning civil twilight05:5109:51
Sunrise06:2010:20
Sunset19:2723:27
Evening civil twilight19:5623:56

Current date and time
Zulu (UTC)  10-Apr-2020 05:51:09
Local (UTC-4)  10-Apr-2020 01:51:09
 
METAR
KMMK 
17nm SE 
100453Z AUTO 27007KT 10SM CLR 06/M03 A2928 RMK AO2 SLP916 T00561028 401110017
KOXC 
18nm S 
100451Z AUTO 26006KT 10SM CLR 04/M03 A2928 RMK AO2 SLP931 T00391028 401060039
KHFD 
18nm E 
100453Z AUTO 00000KT 10SM CLR 06/M02 A2927 RMK AO2 SLP911 T00561017 401170050
KBDL 
20nm NE 
100451Z 28013G22KT 10SM CLR 06/M05 A2925 RMK AO2 SLP907 T00561050 401110039
KBAF 
29nm NE 
100453Z AUTO 28017G24KT 10SM CLR 05/M06 A2924 RMK AO2 PK WND 28030/0358 SLP904 T00501056 401000017
KDXR 
30nm SW 
100453Z AUTO 25007KT 10SM CLR 04/M04 A2930 RMK AO2 SLP921 T00441039 401110022
KHVN 
30nm S 
100453Z AUTO 26008KT 10SM CLR 08/M02 A2929 RMK AO2 SLP917 T00781017 401280039
KSNC 
33nm SE 
100535Z AUTO 27004KT 10SM CLR 04/M03 A2926 RMK AO2
TAF
KBDL 
20nm NE 
092008Z 0920/1024 32019G35KT P6SM -SHRA SCT025 OVC035 FM092100 29016G38KT P6SM BKN035 FM092300 29015G38KT P6SM SCT070 FM100100 28012G30KT P6SM FEW250 FM100300 28011G18KT P6SM FEW250 FM101200 26014G26KT P6SM SCT070 FM101300 27015G27KT P6SM BKN060
NOTAMs
Click for the latest NOTAMs
NOTAMs are issued by the DoD/FAA and will open in a separate window not controlled by AirNav.

 

 
 

Would you like to see your business listed on this page?

 If your business provides an interesting product or service to pilots, flight crews, aircraft, or users of the Shingle Mill Heliport, you should consider listing it here.  To start the listing process, click on the button below
 
Add a business
 

Other Pages about Shingle Mill Heliport

Update a link
 
Copyright © AirNav, LLC. All rights reserved. Privacy Policy  Contact